Time;durP1;ratioP1;P1;durP2;ratioP2;P2;SDS_P1;SDS_P2;PMS_P1;PMS_P2;Temp;Humidity;BMP_temperature;BMP_pressure;BME280_temperature;BME280_humidity;BME280_pressure;Samples;Min_cycle;Max_cycle;Signal;HPM_P1;HPM_P2
2022/02/01 00:02:05;;;;;;;0.80;0.50;;;3.80;99.90;;;;;;5073118;28;20416;-72
2022/02/01 00:04:44;;;;;;;0.70;0.50;;;3.70;99.90;;;;;;5072091;28;20419;-74
2022/02/01 00:34:15;;;;;;;0.70;0.40;;;3.50;99.90;;;;;;5072086;28;20467;-73
2022/02/01 00:36:49;;;;;;;0.60;0.50;;;3.40;99.90;;;;;;5072474;28;20795;-73
2022/02/01 00:39:16;;;;;;;0.90;0.77;;;3.30;99.90;;;;;;5072026;28;20439;-74
2022/02/01 00:41:52;;;;;;;0.70;0.50;;;3.30;99.90;;;;;;5072349;28;20424;-72
2022/02/01 00:44:20;;;;;;;0.60;0.40;;;3.30;99.90;;;;;;5071985;28;20424;-72
2022/02/01 00:46:46;;;;;;;0.70;0.60;;;3.30;99.90;;;;;;5071533;28;20528;-73
2022/02/01 00:49:12;;;;;;;0.70;0.47;;;3.30;99.90;;;;;;5072328;28;21062;-73
2022/02/01 00:51:37;;;;;;;0.80;0.80;;;3.30;99.90;;;;;;5070345;28;20452;-73
2022/02/01 00:54:03;;;;;;;0.90;0.60;;;3.30;99.90;;;;;;5071792;28;20212;-72
2022/02/01 00:56:28;;;;;;;0.60;0.40;;;3.30;99.90;;;;;;5072463;28;20277;-72
2022/02/01 00:58:54;;;;;;;0.70;0.60;;;3.30;99.90;;;;;;5072256;28;20258;-73
2022/02/01 01:01:19;;;;;;;0.70;0.43;;;3.30;99.90;;;;;;5072172;28;20631;-73
2022/02/01 01:03:45;;;;;;;0.70;0.50;;;3.30;99.90;;;;;;5070889;28;20181;-73
2022/02/01 01:06:12;;;;;;;0.70;0.50;;;3.30;99.90;;;;;;5071004;28;20219;-72
2022/02/01 01:08:37;;;;;;;0.70;0.50;;;3.30;99.90;;;;;;5072098;28;20202;-72
2022/02/01 01:11:04;;;;;;;1.83;1.73;;;3.20;99.90;;;;;;5070451;28;20486;-73
2022/02/01 01:16:14;;;;;;;0.70;0.50;;;3.30;99.90;;;;;;5072540;28;20409;-73
2022/02/01 01:38:52;;;;;;;1.53;1.43;;;3.40;99.90;;;;;;5069258;28;20419;-73
2022/02/01 01:43:41;;;;;;;0.67;0.50;;;3.50;99.90;;;;;;5079467;28;20527;-72
2022/02/01 01:54:03;;;;;;;0.60;0.40;;;3.70;99.90;;;;;;5071728;28;20423;-73
2022/02/01 01:56:35;;;;;;;0.70;0.50;;;3.70;99.90;;;;;;5071704;28;20466;-72
2022/02/01 01:59:04;;;;;;;0.70;0.50;;;3.70;99.90;;;;;;5051653;28;20444;-73
2022/02/01 02:01:31;;;;;;;0.70;0.50;;;3.70;99.90;;;;;;5068259;28;20819;-73
2022/02/01 02:03:57;;;;;;;0.70;0.47;;;3.70;99.90;;;;;;5050361;28;20421;-73
2022/02/01 02:06:22;;;;;;;0.63;0.50;;;3.80;99.90;;;;;;5073966;28;20514;-72
2022/02/01 02:08:52;;;;;;;0.60;0.40;;;3.80;99.90;;;;;;5084634;28;20804;-72
2022/02/01 02:14:19;;;;;;;0.70;0.40;;;3.80;99.90;;;;;;5071624;28;20454;-72
2022/02/01 02:16:59;;;;;;;0.70;0.50;;;3.80;99.90;;;;;;5071703;28;20443;-73
2022/02/01 02:19:27;;;;;;;0.70;0.50;;;3.90;99.90;;;;;;5069872;28;20548;-73
2022/02/01 02:21:58;;;;;;;0.70;0.50;;;3.80;99.90;;;;;;5071126;28;20431;-73
2022/02/01 02:24:30;;;;;;;0.70;0.50;;;3.90;99.90;;;;;;5070940;28;20564;-73
2022/02/01 02:26:57;;;;;;;0.60;0.40;;;3.80;99.90;;;;;;5072941;28;20525;-73
2022/02/01 02:29:23;;;;;;;0.60;0.50;;;3.80;99.90;;;;;;5068818;28;20554;-73
2022/02/01 02:31:49;;;;;;;0.60;0.40;;;3.70;99.90;;;;;;5068435;28;20499;-73
2022/02/01 02:34:16;;;;;;;0.70;0.50;;;3.80;99.90;;;;;;5071378;28;20700;-73
2022/02/01 02:36:55;;;;;;;0.60;0.40;;;3.70;99.90;;;;;;5071306;28;20340;-73
2022/02/01 02:47:16;;;;;;;0.60;0.40;;;3.70;99.90;;;;;;5080618;28;20462;-73
2022/02/01 02:49:42;;;;;;;0.60;0.47;;;3.70;99.90;;;;;;5081496;28;20451;-73
2022/02/01 02:52:07;;;;;;;0.60;0.50;;;3.70;99.90;;;;;;5085582;28;20177;-72
2022/02/01 02:54:33;;;;;;;0.70;0.40;;;3.70;99.90;;;;;;5083016;28;20189;-75
2022/02/01 02:57:01;;;;;;;0.60;0.40;;;3.70;99.90;;;;;;5078274;28;20637;-72
2022/02/01 02:59:29;;;;;;;0.67;0.50;;;3.70;99.90;;;;;;5080107;28;20240;-73
2022/02/01 03:01:56;;;;;;;0.70;0.50;;;3.70;99.90;;;;;;5074374;28;20450;-73
2022/02/01 03:04:24;;;;;;;0.60;0.50;;;3.70;99.90;;;;;;5074481;28;20408;-73
2022/02/01 03:06:51;;;;;;;0.60;0.50;;;3.70;99.90;;;;;;5074626;28;20893;-73
2022/02/01 03:09:18;;;;;;;0.70;0.50;;;3.70;99.90;;;;;;5074170;28;21006;-73
2022/02/01 03:11:44;;;;;;;0.70;0.50;;;3.70;99.90;;;;;;5074171;28;20416;-73
2022/02/01 03:14:23;;;;;;;0.60;0.50;;;3.70;99.90;;;;;;5064870;28;20482;-73
2022/02/01 03:16:57;;;;;;;0.60;0.50;;;3.80;99.90;;;;;;5068656;28;20177;-73
2022/02/01 03:22:06;;;;;;;0.60;0.40;;;3.80;99.90;;;;;;5073036;28;20493;-73
2022/02/01 03:24:32;;;;;;;0.60;0.50;;;3.80;99.90;;;;;;5083219;28;20968;-73
2022/02/01 03:26:58;;;;;;;0.60;0.40;;;3.80;99.90;;;;;;5077269;28;20260;-73
2022/02/01 03:29:24;;;;;;;0.60;0.50;;;3.80;99.90;;;;;;5075005;28;20270;-73
2022/02/01 03:31:49;;;;;;;0.70;0.60;;;3.80;99.90;;;;;;5082137;28;20208;-73
2022/02/01 03:34:15;;;;;;;0.60;0.50;;;3.70;99.90;;;;;;5081584;28;20188;-72
2022/02/01 03:36:41;;;;;;;0.60;0.50;;;3.70;99.90;;;;;;5085236;28;20189;-72
2022/02/01 03:39:06;;;;;;;0.60;0.50;;;3.70;99.90;;;;;;5084195;28;20439;-72
2022/02/01 03:41:32;;;;;;;0.60;0.50;;;3.70;99.90;;;;;;5083403;28;20202;-72
2022/02/01 03:44:00;;;;;;;0.70;0.50;;;3.70;99.90;;;;;;5080473;28;20643;-72
2022/02/01 03:46:25;;;;;;;0.60;0.50;;;3.70;99.90;;;;;;5082720;28;20185;-72
2022/02/01 03:48:51;;;;;;;0.60;0.50;;;3.70;99.90;;;;;;5078035;28;20957;-72
2022/02/01 03:51:16;;;;;;;0.60;0.50;;;3.70;99.90;;;;;;5080007;28;20178;-72
2022/02/01 03:53:42;;;;;;;0.60;0.47;;;3.80;99.90;;;;;;5087843;28;20190;-72
2022/02/01 03:56:07;;;;;;;0.67;0.50;;;3.80;99.90;;;;;;5081177;28;20189;-72
2022/02/01 03:58:33;;;;;;;0.60;0.40;;;3.70;99.90;;;;;;5079628;28;21517;-72
2022/02/01 04:00:59;;;;;;;0.70;0.50;;;3.80;99.90;;;;;;5083923;28;20180;-73
2022/02/01 04:03:25;;;;;;;0.70;0.50;;;3.70;99.90;;;;;;5073213;28;20173;-73
2022/02/01 04:05:51;;;;;;;0.77;0.77;;;3.80;99.90;;;;;;5072746;28;20416;-73
2022/02/01 04:08:19;;;;;;;0.60;0.50;;;3.80;99.90;;;;;;5072167;28;20467;-73
2022/02/01 04:10:46;;;;;;;0.60;0.40;;;3.80;99.90;;;;;;5073322;28;20529;-73
2022/02/01 04:13:12;;;;;;;0.60;0.40;;;3.80;99.90;;;;;;5067594;28;20425;-72
2022/02/01 04:15:37;;;;;;;0.70;0.50;;;3.80;99.90;;;;;;5053933;28;20886;-72
2022/02/01 04:18:03;;;;;;;0.60;0.50;;;3.80;99.90;;;;;;5073279;28;20212;-72
2022/02/01 04:20:29;;;;;;;0.70;0.50;;;3.90;99.90;;;;;;5073202;28;20249;-72
2022/02/01 04:22:54;;;;;;;0.70;0.50;;;3.90;99.90;;;;;;5067946;28;20211;-73
2022/02/01 04:25:20;;;;;;;0.60;0.50;;;3.90;99.90;;;;;;5076008;28;20189;-73
2022/02/01 04:27:45;;;;;;;0.70;0.50;;;3.90;99.90;;;;;;5076037;28;20205;-73
2022/02/01 04:30:14;;;;;;;0.60;0.50;;;3.90;99.90;;;;;;5075282;28;20209;-73
2022/02/01 04:32:51;;;;;;;0.60;0.40;;;3.90;99.90;;;;;;5084273;28;20169;-73
2022/02/01 04:35:19;;;;;;;0.70;0.50;;;4.00;99.90;;;;;;5086379;28;20590;-73
2022/02/01 04:37:45;;;;;;;0.70;0.50;;;3.90;99.90;;;;;;5083683;28;20434;-73
2022/02/01 04:40:13;;;;;;;0.60;0.50;;;3.90;99.90;;;;;;5083637;28;20467;-73
2022/02/01 04:42:40;;;;;;;0.70;0.40;;;4.00;99.90;;;;;;5076257;28;20462;-72
2022/02/01 04:45:09;;;;;;;0.70;0.47;;;4.00;99.90;;;;;;5084924;28;21507;-72
2022/02/01 04:47:35;;;;;;;0.63;0.40;;;3.90;99.90;;;;;;5082338;28;20462;-73
2022/02/01 04:50:05;;;;;;;0.70;0.50;;;3.80;99.90;;;;;;5083922;28;20435;-72
2022/02/01 04:52:31;;;;;;;0.70;0.70;;;3.80;99.90;;;;;;5072811;28;20437;-73
2022/02/01 04:54:57;;;;;;;0.60;0.40;;;3.90;99.90;;;;;;5078238;28;20429;-73
2022/02/01 04:57:24;;;;;;;0.60;0.50;;;3.90;99.90;;;;;;5078470;28;20434;-73
2022/02/01 04:59:49;;;;;;;0.70;0.50;;;3.80;99.90;;;;;;5078405;28;20436;-72
2022/02/01 05:02:15;;;;;;;0.70;0.50;;;3.80;99.90;;;;;;5072622;28;20466;-72
2022/02/01 05:04:41;;;;;;;0.70;0.50;;;3.70;99.90;;;;;;5092336;28;20165;-72
2022/02/01 05:07:06;;;;;;;0.70;0.50;;;3.70;99.90;;;;;;5081113;28;20574;-72
2022/02/01 05:09:33;;;;;;;0.60;0.40;;;3.70;99.90;;;;;;5071509;28;20201;-73
2022/02/01 05:12:02;;;;;;;0.60;0.50;;;3.80;99.90;;;;;;5071680;28;20576;-72
2022/02/01 05:14:29;;;;;;;0.60;0.40;;;3.70;99.90;;;;;;5070936;28;20420;-72
2022/02/01 05:21:58;;;;;;;0.60;0.40;;;3.70;99.90;;;;;;5072058;28;20174;-73
2022/02/01 05:24:25;;;;;;;0.60;0.50;;;3.80;99.90;;;;;;5080132;28;20491;-72
2022/02/01 05:26:51;;;;;;;0.60;0.50;;;3.70;99.90;;;;;;5085471;28;20404;-72
2022/02/01 05:29:18;;;;;;;0.60;0.50;;;3.80;99.90;;;;;;5072040;28;20474;-72
2022/02/01 05:31:44;;;;;;;0.60;0.50;;;3.80;99.90;;;;;;5073834;28;20435;-72
2022/02/01 05:34:10;;;;;;;0.70;0.50;;;3.80;99.90;;;;;;5085614;28;20514;-72
2022/02/01 05:36:35;;;;;;;0.70;0.50;;;3.80;99.90;;;;;;5073488;28;20194;-72
2022/02/01 05:39:13;;;;;;;0.60;0.40;;;3.80;99.90;;;;;;5071817;28;20242;-73
2022/02/01 05:41:39;;;;;;;0.60;0.50;;;3.80;99.90;;;;;;5080086;28;20224;-73
2022/02/01 05:44:05;;;;;;;0.60;0.40;;;3.80;99.90;;;;;;5076610;28;20452;-73
2022/02/01 05:46:31;;;;;;;0.60;0.50;;;3.80;99.90;;;;;;5079408;28;20204;-72
2022/02/01 05:48:56;;;;;;;0.60;0.40;;;3.80;99.90;;;;;;5077023;28;20202;-72
2022/02/01 05:51:23;;;;;;;1.70;1.27;;;3.80;99.90;;;;;;5080920;28;20441;-72
2022/02/01 05:53:49;;;;;;;0.60;0.50;;;3.80;99.90;;;;;;5079363;28;20211;-73
2022/02/01 05:56:14;;;;;;;0.60;0.40;;;3.70;99.90;;;;;;5080805;28;20432;-73
2022/02/01 05:58:40;;;;;;;0.60;0.40;;;3.70;99.90;;;;;;5083446;28;20699;-72
2022/02/01 06:01:05;;;;;;;1.70;1.20;;;3.80;99.90;;;;;;5075017;28;20297;-73
2022/02/01 06:03:31;;;;;;;0.70;0.50;;;3.80;99.90;;;;;;5079678;28;20187;-72
2022/02/01 06:05:56;;;;;;;0.70;0.47;;;3.80;99.90;;;;;;5077619;28;20196;-73
2022/02/01 06:08:22;;;;;;;0.70;0.50;;;3.70;99.90;;;;;;5082286;28;20201;-73
2022/02/01 06:10:47;;;;;;;0.63;0.47;;;3.80;99.90;;;;;;5078059;28;20516;-73
2022/02/01 06:13:13;;;;;;;0.60;0.50;;;3.70;99.90;;;;;;5084733;28;20176;-73
2022/02/01 06:15:39;;;;;;;0.60;0.40;;;3.70;99.90;;;;;;5082370;28;20179;-73
2022/02/01 06:18:04;;;;;;;0.70;0.50;;;3.70;99.90;;;;;;5087863;28;20216;-73
2022/02/01 06:20:30;;;;;;;0.60;0.40;;;3.70;99.90;;;;;;5084157;28;20178;-72
2022/02/01 06:22:55;;;;;;;0.70;0.50;;;3.70;99.90;;;;;;5076661;28;20173;-73
2022/02/01 06:25:44;;;;;;;0.70;0.50;;;3.70;99.90;;;;;;5075759;28;20584;-73
2022/02/01 06:28:06;;;;;;;0.60;0.43;;;3.70;99.90;;;;;;5077615;28;20233;-73
2022/02/01 06:30:32;;;;;;;0.60;0.40;;;3.80;99.90;;;;;;5078231;28;20428;-73
2022/02/01 06:32:58;;;;;;;0.60;0.40;;;3.80;99.90;;;;;;5074608;28;20534;-73
2022/02/01 06:35:25;;;;;;;0.60;0.40;;;3.80;99.90;;;;;;5084492;28;20177;-73
2022/02/01 06:37:50;;;;;;;0.60;0.40;;;3.80;99.90;;;;;;5079313;28;20878;-73
2022/02/01 06:40:18;;;;;;;0.60;0.50;;;3.80;99.90;;;;;;5072672;28;20463;-74
2022/02/01 06:42:44;;;;;;;0.60;0.50;;;3.90;99.90;;;;;;5077505;28;20230;-73
2022/02/01 06:45:10;;;;;;;0.60;0.43;;;3.90;99.90;;;;;;5084503;28;20443;-73
2022/02/01 06:47:35;;;;;;;0.63;0.50;;;3.90;99.90;;;;;;5085084;28;20817;-73
2022/02/01 06:50:01;;;;;;;0.70;0.50;;;4.00;99.90;;;;;;5075188;28;20595;-73
2022/02/01 06:52:26;;;;;;;0.60;0.50;;;4.00;99.90;;;;;;5086382;28;20689;-73
2022/02/01 06:54:52;;;;;;;0.63;0.40;;;3.90;99.90;;;;;;5083429;28;20254;-72
2022/02/01 06:57:17;;;;;;;0.70;0.50;;;4.00;99.90;;;;;;5085219;28;20628;-73
2022/02/01 06:59:43;;;;;;;0.60;0.50;;;4.00;99.90;;;;;;5089388;28;20247;-74
2022/02/01 07:02:08;;;;;;;0.60;0.40;;;4.00;99.90;;;;;;5084191;28;20237;-73
2022/02/01 07:04:34;;;;;;;0.60;0.40;;;4.00;99.90;;;;;;5082453;28;20209;-72
2022/02/01 07:07:00;;;;;;;0.67;0.57;;;4.10;99.90;;;;;;5082224;28;20255;-73
2022/02/01 07:09:28;;;;;;;0.60;0.50;;;4.10;99.90;;;;;;5082471;28;20198;-72
2022/02/01 07:11:54;;;;;;;1.00;0.80;;;4.10;99.90;;;;;;5082586;28;20174;-73
2022/02/01 07:14:20;;;;;;;2.37;1.73;;;4.10;99.90;;;;;;5078684;28;20434;-73
2022/02/01 07:16:45;;;;;;;1.17;0.67;;;4.10;99.90;;;;;;5081445;28;20537;-73
2022/02/01 07:19:11;;;;;;;0.60;0.40;;;4.20;99.90;;;;;;5083375;28;20611;-73
2022/02/01 07:21:36;;;;;;;0.60;0.50;;;4.20;99.90;;;;;;5082360;28;20188;-73
2022/02/01 07:24:04;;;;;;;0.90;0.90;;;4.20;99.90;;;;;;5082642;28;20232;-73
2022/02/01 07:26:31;;;;;;;1.00;1.00;;;4.30;99.90;;;;;;5086492;28;20268;-73
2022/02/01 07:28:56;;;;;;;0.70;0.50;;;4.30;99.90;;;;;;5081299;28;20856;-73
2022/02/01 07:31:22;;;;;;;0.60;0.47;;;4.30;99.90;;;;;;5082515;28;20440;-72
2022/02/01 07:33:47;;;;;;;0.70;0.50;;;4.30;99.90;;;;;;5084701;28;20534;-72
2022/02/01 07:36:16;;;;;;;0.60;0.50;;;4.30;99.90;;;;;;5093202;28;20333;-72
2022/02/01 07:38:42;;;;;;;0.60;0.40;;;4.30;99.90;;;;;;5079925;28;20674;-72
2022/02/01 07:41:08;;;;;;;0.60;0.50;;;4.30;99.90;;;;;;5088735;28;20445;-72
2022/02/01 07:43:33;;;;;;;1.03;1.03;;;4.30;99.90;;;;;;5080558;28;20420;-72
2022/02/01 07:46:05;;;;;;;0.70;0.50;;;4.40;99.90;;;;;;5079517;28;20176;-73
2022/02/01 07:48:30;;;;;;;0.60;0.40;;;4.40;99.90;;;;;;5081889;28;20587;-73
2022/02/01 07:50:56;;;;;;;0.70;0.50;;;4.50;99.90;;;;;;5082560;28;20493;-73
2022/02/01 07:53:21;;;;;;;0.60;0.40;;;4.50;99.90;;;;;;5081569;28;20189;-73
2022/02/01 07:55:47;;;;;;;0.70;0.60;;;4.50;99.90;;;;;;5081762;28;20254;-73
2022/02/01 07:58:12;;;;;;;0.70;0.50;;;4.40;99.90;;;;;;5085303;28;20197;-73
2022/02/01 08:00:38;;;;;;;0.60;0.50;;;4.40;99.90;;;;;;5080049;28;20180;-72
2022/02/01 08:03:05;;;;;;;0.70;0.60;;;4.50;99.90;;;;;;5077347;28;20185;-73
2022/02/01 08:05:32;;;;;;;0.70;0.50;;;4.50;99.90;;;;;;5081570;28;20185;-73
2022/02/01 08:08:02;;;;;;;1.70;1.33;;;4.50;99.90;;;;;;5080434;28;20474;-73
2022/02/01 08:10:35;;;;;;;0.63;0.47;;;4.60;99.90;;;;;;5080772;28;20442;-73
2022/02/01 08:13:47;;;;;;;0.70;0.50;;;4.60;99.90;;;;;;5081686;28;20800;-72
2022/02/01 08:20:53;;;;;;;0.70;0.40;;;4.50;99.90;;;;;;5058697;28;20932;-72
2022/02/01 08:23:18;;;;;;;0.70;0.60;;;4.50;99.90;;;;;;5085556;28;20208;-72
2022/02/01 08:25:44;;;;;;;1.20;1.10;;;4.50;99.90;;;;;;5072966;28;20420;-73
2022/02/01 08:28:10;;;;;;;68.37;2.90;;;4.50;99.90;;;;;;5073151;28;20205;-73
2022/02/01 08:30:36;;;;;;;0.60;0.50;;;4.50;99.90;;;;;;5066373;28;20162;-73
2022/02/01 08:33:03;;;;;;;1.00;0.83;;;4.50;99.90;;;;;;5053572;28;20916;-72
2022/02/01 08:35:29;;;;;;;0.63;0.47;;;4.50;99.90;;;;;;5070051;28;20162;-72
2022/02/01 08:37:55;;;;;;;0.63;0.50;;;4.60;99.90;;;;;;5067469;28;20500;-72
2022/02/01 08:40:20;;;;;;;0.60;0.50;;;4.50;99.90;;;;;;5075335;28;20462;-72
2022/02/01 08:42:48;;;;;;;0.60;0.40;;;4.40;99.90;;;;;;5092975;28;20162;-72
2022/02/01 08:45:21;;;;;;;0.70;0.50;;;4.40;99.90;;;;;;5094294;28;20196;-72
2022/02/01 08:47:47;;;;;;;1.20;1.20;;;4.30;99.90;;;;;;5094169;28;20966;-72
2022/02/01 08:50:13;;;;;;;0.80;0.80;;;4.30;99.90;;;;;;5082573;28;20965;-73
2022/02/01 08:52:45;;;;;;;0.60;0.50;;;4.30;99.90;;;;;;5069355;28;20456;-73
2022/02/01 08:55:20;;;;;;;0.70;0.50;;;4.40;99.90;;;;;;5085683;28;20591;-73
2022/02/01 08:57:47;;;;;;;1.27;1.17;;;4.50;99.90;;;;;;5064158;28;20506;-72
2022/02/01 09:00:15;;;;;;;0.70;0.57;;;4.50;99.90;;;;;;5085758;28;20488;-73
2022/02/01 09:02:42;;;;;;;0.70;0.60;;;4.40;99.90;;;;;;5093497;28;20772;-72
2022/02/01 09:05:08;;;;;;;0.60;0.43;;;4.40;99.90;;;;;;5092754;28;20837;-72
2022/02/01 09:07:34;;;;;;;0.97;0.97;;;4.40;99.90;;;;;;5079564;28;20435;-72
2022/02/01 09:09:59;;;;;;;1.57;0.83;;;4.40;99.90;;;;;;5073473;28;20786;-72
2022/02/01 09:12:25;;;;;;;0.70;0.70;;;4.40;99.90;;;;;;5074619;28;20165;-73
2022/02/01 09:14:51;;;;;;;0.70;0.67;;;4.50;99.90;;;;;;5073711;28;20219;-72
2022/02/01 09:17:19;;;;;;;0.60;0.50;;;4.50;99.90;;;;;;5075618;28;20212;-73
2022/02/01 09:19:45;;;;;;;0.60;0.50;;;4.60;99.90;;;;;;5075076;28;20821;-72
2022/02/01 09:22:12;;;;;;;0.60;0.40;;;4.60;99.90;;;;;;5073506;28;20420;-73
2022/02/01 09:24:38;;;;;;;0.97;0.80;;;4.80;99.90;;;;;;5075708;28;20249;-73
2022/02/01 09:27:04;;;;;;;0.60;0.50;;;4.90;99.90;;;;;;5073539;28;20459;-72
2022/02/01 09:29:30;;;;;;;1.47;0.73;;;5.00;99.90;;;;;;5055311;28;20488;-72
2022/02/01 09:31:55;;;;;;;0.60;0.43;;;5.10;99.90;;;;;;5061319;28;20527;-70
2022/02/01 09:34:22;;;;;;;0.80;0.70;;;5.10;99.90;;;;;;5078551;28;20177;-70
2022/02/01 09:36:50;;;;;;;0.60;0.40;;;5.00;99.90;;;;;;5077503;28;20956;-71
2022/02/01 09:39:16;;;;;;;0.70;0.50;;;5.10;99.90;;;;;;5094730;28;20490;-71
2022/02/01 09:41:42;;;;;;;0.60;0.40;;;5.30;99.90;;;;;;5072122;28;20415;-71
2022/02/01 09:44:08;;;;;;;0.90;0.63;;;5.30;99.90;;;;;;5060960;28;20420;-72
2022/02/01 09:46:37;;;;;;;0.70;0.50;;;5.40;99.90;;;;;;5054378;28;20589;-72
2022/02/01 09:49:04;;;;;;;0.60;0.50;;;5.40;99.90;;;;;;5066169;28;20491;-72
2022/02/01 09:51:29;;;;;;;0.70;0.60;;;5.30;99.90;;;;;;5059846;28;20477;-73
2022/02/01 09:53:55;;;;;;;0.70;0.53;;;5.30;99.90;;;;;;5077431;28;20523;-72
2022/02/01 09:56:20;;;;;;;0.60;0.50;;;5.40;99.90;;;;;;5076156;28;20163;-71
2022/02/01 09:58:56;;;;;;;0.70;0.60;;;5.30;99.90;;;;;;5075908;28;20186;-71
2022/02/01 10:01:28;;;;;;;0.70;0.60;;;5.20;99.90;;;;;;5072670;28;20535;-71
2022/02/01 10:04:00;;;;;;;0.70;0.50;;;5.30;99.90;;;;;;5056488;28;20408;-72
2022/02/01 10:06:30;;;;;;;0.60;0.50;;;5.50;99.90;;;;;;5060819;28;20442;-72
2022/02/01 10:09:04;;;;;;;0.60;0.40;;;5.50;99.90;;;;;;5083180;28;21023;-71
2022/02/01 10:11:39;;;;;;;0.70;0.50;;;5.60;99.90;;;;;;5076329;28;20762;-71
2022/02/01 10:14:07;;;;;;;0.60;0.40;;;5.60;99.90;;;;;;5076745;28;20923;-72
2022/02/01 10:16:46;;;;;;;0.70;0.50;;;5.80;99.90;;;;;;5079868;28;20424;-73
2022/02/01 10:19:13;;;;;;;0.63;0.50;;;5.70;99.90;;;;;;5088608;28;20478;-71
2022/02/01 10:21:52;;;;;;;0.70;0.50;;;5.60;99.90;;;;;;5077252;28;20865;-72
2022/02/01 10:24:40;;;;;;;0.60;0.40;;;5.60;99.90;;;;;;5084012;28;20785;-72
2022/02/01 10:27:14;;;;;;;0.60;0.40;;;5.70;99.90;;;;;;5073387;28;20436;-72
2022/02/01 10:30:14;;;;;;;0.70;0.60;;;5.80;99.90;;;;;;5077970;28;20498;-72
2022/02/01 10:35:55;;;;;;;0.60;0.40;;;5.80;99.90;;;;;;5080996;28;20524;-72
2022/02/01 10:38:21;;;;;;;0.77;0.77;;;5.80;99.90;;;;;;5092580;28;20489;-72
2022/02/01 10:40:52;;;;;;;0.60;0.43;;;5.90;99.90;;;;;;5085804;28;20411;-72
2022/02/01 10:43:23;;;;;;;0.60;0.50;;;5.90;99.90;;;;;;5085916;28;20185;-72
2022/02/01 10:45:52;;;;;;;0.60;0.50;;;6.00;99.90;;;;;;5095129;28;20408;-72
2022/02/01 10:48:21;;;;;;;0.60;0.50;;;6.10;99.90;;;;;;5094974;28;20455;-72
2022/02/01 10:51:15;;;;;;;0.70;0.53;;;6.20;99.90;;;;;;5075877;28;20457;-72
2022/02/01 10:53:41;;;;;;;0.60;0.40;;;6.30;99.90;;;;;;5060506;28;20428;-71
2022/02/01 10:56:15;;;;;;;3.13;1.83;;;6.30;99.90;;;;;;5056845;28;20401;-72
2022/02/01 10:58:41;;;;;;;0.60;0.50;;;6.30;99.90;;;;;;5075873;28;20459;-72
2022/02/01 11:01:07;;;;;;;0.70;0.60;;;6.30;99.90;;;;;;5076222;28;21255;-72
2022/02/01 11:03:39;;;;;;;0.60;0.50;;;6.30;99.90;;;;;;5074648;28;20477;-72
2022/02/01 11:06:05;;;;;;;0.60;0.40;;;6.40;99.90;;;;;;5075631;28;20151;-72
2022/02/01 11:08:34;;;;;;;0.63;0.50;;;6.40;99.90;;;;;;5075521;28;20456;-72
2022/02/01 11:11:00;;;;;;;0.60;0.50;;;6.50;99.90;;;;;;5063514;28;20167;-72
2022/02/01 11:13:37;;;;;;;0.70;0.50;;;6.50;99.90;;;;;;5085310;28;20413;-72
2022/02/01 11:16:05;;;;;;;0.60;0.47;;;6.60;99.90;;;;;;5073994;28;20175;-72
2022/02/01 11:18:32;;;;;;;0.70;0.60;;;6.60;99.90;;;;;;5063838;28;20451;-72
2022/02/01 11:21:15;;;;;;;0.60;0.50;;;6.70;99.90;;;;;;5085868;28;20416;-72
2022/02/01 11:23:48;;;;;;;0.60;0.50;;;6.70;99.90;;;;;;5069139;28;20448;-72
2022/02/01 11:26:21;;;;;;;1.43;1.33;;;6.70;99.90;;;;;;5074023;28;20901;-73
2022/02/01 11:29:14;;;;;;;1.00;1.00;;;6.80;99.90;;;;;;5055793;28;20461;-73
2022/02/01 11:31:48;;;;;;;0.70;0.50;;;6.70;99.90;;;;;;5070428;28;20410;-69
2022/02/01 11:34:37;;;;;;;0.60;0.50;;;6.70;99.90;;;;;;5055844;28;20435;-72
2022/02/01 11:37:10;;;;;;;0.60;0.47;;;6.70;99.90;;;;;;5073516;28;20778;-72
2022/02/01 11:39:48;;;;;;;0.70;0.67;;;6.80;99.90;;;;;;5074250;28;20510;-71
2022/02/01 11:42:16;;;;;;;0.70;0.50;;;6.80;99.90;;;;;;5081448;28;21109;-72
2022/02/01 11:44:41;;;;;;;0.70;0.60;;;6.80;99.90;;;;;;5081000;28;20440;-72
2022/02/01 11:47:13;;;;;;;0.60;0.50;;;6.70;99.90;;;;;;5080358;28;20933;-71
2022/02/01 11:49:53;;;;;;;0.70;0.60;;;6.70;99.90;;;;;;5076697;28;20202;-71
2022/02/01 11:52:20;;;;;;;0.60;0.50;;;6.60;99.90;;;;;;5072888;28;20474;-71
2022/02/01 11:54:49;;;;;;;0.63;0.50;;;6.60;99.90;;;;;;5074598;28;20424;-71
2022/02/01 11:57:27;;;;;;;0.70;0.60;;;6.70;99.90;;;;;;5079103;28;20450;-69
2022/02/01 11:59:55;;;;;;;0.87;0.53;;;6.60;99.90;;;;;;5094534;28;20443;-71
2022/02/01 12:02:25;;;;;;;0.67;0.40;;;6.70;99.90;;;;;;5072604;28;20464;-70
2022/02/01 12:04:51;;;;;;;0.70;0.47;;;6.70;99.90;;;;;;5073549;28;20425;-72
2022/02/01 12:07:23;;;;;;;0.60;0.47;;;6.60;99.90;;;;;;5072058;28;20798;-71
2022/02/01 12:09:49;;;;;;;1.27;1.17;;;6.60;99.90;;;;;;5077531;28;20202;-72
2022/02/01 12:12:14;;;;;;;0.60;0.43;;;6.70;99.90;;;;;;5090514;28;20403;-71
2022/02/01 12:14:40;;;;;;;0.67;0.50;;;6.70;99.90;;;;;;5074862;28;20182;-71
2022/02/01 12:17:07;;;;;;;0.60;0.50;;;6.70;99.90;;;;;;5070774;28;20185;-71
2022/02/01 12:19:50;;;;;;;0.70;0.50;;;6.70;99.90;;;;;;5066861;28;20236;-71
2022/02/01 12:22:40;;;;;;;0.60;0.40;;;6.80;99.90;;;;;;5071271;28;20415;-71
2022/02/01 12:25:08;;;;;;;0.60;0.43;;;6.60;99.90;;;;;;5053495;28;20404;-71
2022/02/01 12:27:43;;;;;;;0.60;0.40;;;6.70;99.90;;;;;;5085061;28;20782;-71
2022/02/01 12:30:10;;;;;;;0.60;0.50;;;6.60;99.90;;;;;;5072867;28;20414;-72
2022/02/01 12:32:36;;;;;;;0.60;0.50;;;6.70;99.90;;;;;;5074329;28;20392;-72
2022/02/01 12:35:03;;;;;;;0.60;0.50;;;6.70;99.90;;;;;;5077824;28;20423;-72
2022/02/01 12:37:31;;;;;;;0.60;0.50;;;6.70;99.90;;;;;;5075327;28;20220;-72
2022/02/01 12:39:59;;;;;;;0.60;0.50;;;6.70;99.90;;;;;;5072864;28;20448;-72
2022/02/01 12:42:34;;;;;;;0.60;0.50;;;6.80;99.90;;;;;;5073391;28;20412;-72
2022/02/01 12:47:44;;;;;;;0.60;0.50;;;6.80;99.90;;;;;;5076018;28;20434;-72
2022/02/01 12:50:14;;;;;;;0.60;0.50;;;6.90;99.90;;;;;;5082707;28;20427;-72
2022/02/01 12:52:40;;;;;;;0.60;0.50;;;6.90;99.90;;;;;;5071753;28;20197;-71
2022/02/01 12:55:07;;;;;;;0.60;0.40;;;6.90;99.90;;;;;;5080335;28;20410;-71
2022/02/01 12:57:34;;;;;;;0.60;0.50;;;6.90;99.90;;;;;;5077394;28;20437;-71
2022/02/01 13:00:09;;;;;;;0.63;0.50;;;6.90;99.90;;;;;;5073588;28;20439;-71
2022/02/01 13:02:35;;;;;;;0.60;0.40;;;6.90;99.90;;;;;;5072512;28;20510;-70
2022/02/01 13:05:07;;;;;;;0.60;0.40;;;6.90;99.90;;;;;;5080761;28;20572;-70
2022/02/01 13:21:06;;;;;;;0.60;0.40;;;7.00;99.90;;;;;;5053615;28;20397;-72
2022/02/01 13:23:39;;;;;;;0.87;0.80;;;7.00;99.90;;;;;;5061284;28;20420;-72
2022/02/01 13:26:14;;;;;;;0.60;0.40;;;7.10;99.90;;;;;;5078963;28;20417;-71
2022/02/01 13:28:40;;;;;;;0.60;0.50;;;7.10;99.90;;;;;;5062049;28;20478;-71
2022/02/01 13:31:12;;;;;;;0.60;0.50;;;7.20;99.90;;;;;;5077392;28;20488;-71
2022/02/01 13:33:48;;;;;;;0.60;0.50;;;7.20;99.90;;;;;;5073964;28;20462;-71
2022/02/01 13:36:14;;;;;;;0.60;0.40;;;7.20;99.90;;;;;;5084066;28;20480;-71
2022/02/01 13:39:00;;;;;;;0.60;0.50;;;7.30;99.90;;;;;;5071798;28;20813;-71
2022/02/01 13:41:29;;;;;;;0.70;0.50;;;7.30;99.90;;;;;;5079016;28;20873;-70
2022/02/01 13:43:57;;;;;;;0.70;0.60;;;7.30;99.90;;;;;;5085514;28;20915;-72
2022/02/01 13:46:27;;;;;;;0.60;0.50;;;7.40;99.90;;;;;;5077876;28;20440;-70
2022/02/01 13:49:09;;;;;;;0.70;0.60;;;7.50;99.90;;;;;;5069541;28;20845;-70
2022/02/01 13:51:49;;;;;;;0.60;0.40;;;7.50;99.90;;;;;;5085908;28;20485;-72
2022/02/01 13:54:15;;;;;;;0.60;0.40;;;7.50;99.90;;;;;;5082754;28;20509;-73
2022/02/01 13:56:45;;;;;;;0.60;0.50;;;7.60;99.90;;;;;;5086149;28;20962;-71
2022/02/01 13:59:16;;;;;;;0.97;0.83;;;7.60;99.90;;;;;;5074835;28;20201;-71
2022/02/01 14:01:45;;;;;;;0.60;0.40;;;7.60;99.90;;;;;;5066213;28;20801;-71
2022/02/01 14:04:20;;;;;;;0.60;0.50;;;7.60;99.90;;;;;;5064200;28;20437;-71
2022/02/01 14:06:57;;;;;;;1.33;1.23;;;7.60;99.90;;;;;;5077124;28;20426;-72
2022/02/01 14:25:35;;;;;;;0.60;0.50;;;7.70;99.90;;;;;;5071515;28;20924;-71
2022/02/01 14:34:55;;;;;;;0.63;0.50;;;7.70;99.90;;;;;;5060349;28;20499;-69
2022/02/01 14:37:38;;;;;;;0.60;0.50;;;7.70;99.90;;;;;;5078107;28;20178;-71
2022/02/01 14:43:20;;;;;;;0.60;0.40;;;7.60;99.90;;;;;;5062037;28;20456;-71
2022/02/01 14:45:46;;;;;;;0.60;0.40;;;7.60;99.90;;;;;;5075446;28;20892;-72
2022/02/01 14:48:11;;;;;;;0.60;0.50;;;7.70;99.90;;;;;;5074776;28;20470;-71
2022/02/01 14:50:37;;;;;;;0.60;0.50;;;7.70;99.90;;;;;;5069105;28;20194;-71
2022/02/01 14:53:03;;;;;;;0.60;0.50;;;7.70;99.90;;;;;;5073545;28;20190;-71
2022/02/01 14:55:35;;;;;;;0.60;0.50;;;7.70;99.90;;;;;;5084897;28;20545;-71
2022/02/01 15:03:51;;;;;;;0.73;0.73;;;7.80;99.90;;;;;;5069254;28;20454;-73
2022/02/01 15:11:47;;;;;;;2.50;0.80;;;7.90;99.90;;;;;;5088647;28;20414;-72
2022/02/01 15:14:12;;;;;;;1.47;1.00;;;8.00;99.90;;;;;;5089849;28;20439;-72
2022/02/01 15:16:38;;;;;;;0.60;0.40;;;8.00;99.90;;;;;;5077164;28;20437;-72
2022/02/01 15:19:04;;;;;;;0.60;0.50;;;8.00;99.90;;;;;;5077548;28;20198;-72
2022/02/01 15:21:30;;;;;;;1.03;0.77;;;8.00;99.90;;;;;;5078662;28;20541;-72
2022/02/01 15:23:56;;;;;;;1.67;1.57;;;8.10;99.90;;;;;;5077023;28;20415;-72
2022/02/01 15:26:21;;;;;;;0.63;0.50;;;8.10;99.90;;;;;;5064940;28;20178;-73